Boston, Massachusetts
Traffic Map
Current Weather Conditions
Boston, Massachusetts
Broken Clouds
Broken Clouds
21°
Feels Like: 21°
Wind Chill: 21° Ceiling: 8500
Heat Index: 21° Visibility: 10mi
Dew Point: 14° Wind: 3mph
Humidity: 68% Direction: 160° (SSE)
Pressure: 30in Gusts: 0mph
Raw Report DataKBOS 301254Z 16003KT 10SM BKN085 21/14 A3000 RMK AO2 SLP158 T02060144
Traffic Incident Summary
Active as of:
Severity:
Category:
InformationThere was an issue retrieving the traffic information for this location. Please try a different location or try again shortly.
Advertisements
Track Severe Weather on mobile